Map

Track Data

SID SEASON NUMBER BASIN SUBBASIN NAME ISO_TIME NATURE LAT LON WMO_WIND WMO_PRES WMO_AGENCY TRACK_TYPE DIST2LAND LANDFALL IFLAG USA_AGENCY USA_ATCF_ID USA_LAT USA_LON USA_RECORD USA_STATUS USA_WIND USA_PRES USA_SSHS USA_R34_NE USA_R34_SE USA_R34_SW USA_R34_NW USA_R50_NE USA_R50_SE USA_R50_SW USA_R50_NW USA_R64_NE USA_R64_SE USA_R64_SW USA_R64_NW USA_POCI USA_ROCI USA_RMW USA_EYE TOKYO_LAT TOKYO_LON TOKYO_GRADE TOKYO_WIND TOKYO_PRES TOKYO_R50_DIR TOKYO_R50_LONG TOKYO_R50_SHORT TOKYO_R30_DIR TOKYO_R30_LONG TOKYO_R30_SHORT TOKYO_LAND CMA_LAT CMA_LON CMA_CAT CMA_WIND CMA_PRES HKO_LAT HKO_LON HKO_CAT HKO_WIND HKO_PRES NEWDELHI_LAT NEWDELHI_LON NEWDELHI_GRADE NEWDELHI_WIND NEWDELHI_PRES NEWDELHI_CI NEWDELHI_DP NEWDELHI_POCI REUNION_LAT REUNION_LON REUNION_TYPE REUNION_WIND REUNION_PRES REUNION_TNUM REUNION_CI REUNION_RMW REUNION_R34_NE REUNION_R34_SE REUNION_R34_SW REUNION_R34_NW REUNION_R50_NE REUNION_R50_SE REUNION_R50_SW REUNION_R50_NW REUNION_R64_NE REUNION_R64_SE REUNION_R64_SW REUNION_R64_NW BOM_LAT BOM_LON BOM_TYPE BOM_WIND BOM_PRES BOM_TNUM BOM_CI BOM_RMW BOM_R34_NE BOM_R34_SE BOM_R34_SW BOM_R34_NW BOM_R50_NE BOM_R50_SE BOM_R50_SW BOM_R50_NW BOM_R64_NE BOM_R64_SE BOM_R64_SW BOM_R64_NW BOM_ROCI BOM_POCI BOM_EYE BOM_POS_METHOD BOM_PRES_METHOD NADI_LAT NADI_LON NADI_CAT NADI_WIND NADI_PRES WELLINGTON_LAT WELLINGTON_LON WELLINGTON_WIND WELLINGTON_PRES DS824_LAT DS824_LON DS824_STAGE DS824_WIND DS824_PRES TD9636_LAT TD9636_LON TD9636_STAGE TD9636_WIND TD9636_PRES TD9635_LAT TD9635_LON TD9635_WIND TD9635_PRES TD9635_ROCI NEUMANN_LAT NEUMANN_LON NEUMANN_CLASS NEUMANN_WIND NEUMANN_PRES MLC_LAT MLC_LON MLC_CLASS MLC_WIND MLC_PRES USA_GUST BOM_GUST BOM_GUST_PER REUNION_GUST REUNION_GUST_PER USA_SEAHGT USA_SEARAD_NE USA_SEARAD_SE USA_SEARAD_SW USA_SEARAD_NW STORM_SPEED STORM_DIR
1976312S09090 1977 134 SI MM BRIGITTA 1976-11-06 18:00:00 TS -9.40000 89.9000 main 1317 1317 O________OO___ jtwc_sh SH021977 -9.40000 89.9000 -1 -9.40000 89.9000 TC -9.40000 89.9000 7 6 224
1976312S09090 1977 134 SI MM BRIGITTA 1976-11-06 21:00:00 TS -9.60440 89.7036 main 1349 1349 P________PP___ SH021977 -9.61751 89.7101 -1 -9.61751 89.7101 TC -9.57817 89.6908 7 6 227
1976312S09090 1977 134 SI MM BRIGITTA 1976-11-07 00:00:00 TS -9.78168 89.4917 main 1380 1380 O________OP___ jtwc_sh SH021977 -9.80000 89.5000 -1 -9.80000 89.5000 TC -9.74503 89.4752 7 5 235
1976312S09090 1977 134 SI MM BRIGITTA 1976-11-07 03:00:00 TS -9.91146 89.2540 main 1404 1404 P________PP___ SH021977 -9.92250 89.2575 -1 -9.92250 89.2575 TC -9.88938 89.2470 7 5 246
1976312S09090 1977 134 SI MM BRIGITTA 1976-11-07 06:00:00 TS -10.0000 89.0000 main 1436 1436 O________OO___ jtwc_sh SH021977 -10.0000 89.0000 -1 -10.0000 89.0000 TC 25 -10.0000 89.0000 1 5 253
1976312S09090 1977 134 SI MM BRIGITTA 1976-11-07 09:00:00 TS -10.0663 88.7487 main 1469 1469 P________PP___ SH021977 -10.0650 88.7575 -1 -10.0650 88.7575 TC 25 -10.0691 88.7312 1 5 259
1976312S09090 1977 134 SI MM BRIGITTA 1976-11-07 12:00:00 TS -10.1008 88.4833 main 1486 1486 O________OP___ jtwc_sh SH021977 -10.1000 88.5000 -1 -10.1000 88.5000 TC 25 -10.1025 88.4499 1 6 266
1976312S09090 1977 134 SI MM BRIGITTA 1976-11-07 15:00:00 TS -10.1083 88.1845 main 1512 1512 P________PP___ SH021977 -10.1075 88.1925 -1 -10.1075 88.1925 TC 25 -10.1097 88.1687 1 6 270
1976312S09090 1977 134 SI MM BRIGITTA 1976-11-07 18:00:00 TS -10.1000 87.9000 main 1538 1538 O________OO___ jtwc_sh SH021977 -10.1000 87.9000 -1 -10.1000 87.9000 TC 25 -10.1000 87.9000 1 5 270
1976312S09090 1977 134 SI MM BRIGITTA 1976-11-07 21:00:00 TS -10.1121 87.6996 main 1555 1555 P________PP___ SH021977 -10.1074 87.6925 -1 -10.1074 87.6925 TC 25 -10.1214 87.7137 1 4 269
1976312S09090 1977 134 SI MM BRIGITTA 1976-11-08 00:00:00 TS -10.1081 87.5110 main 1573 1573 O________OP___ jtwc_sh SH021977 -10.1000 87.5000 -1 -10.1000 87.5000 TC 25 -10.1243 87.5329 1 4 274
1976312S09090 1977 134 SI MM BRIGITTA 1976-11-08 03:00:00 TS -10.0833 87.2953 main 1591 1591 P________PP___ SH021977 -10.0799 87.2876 -1 -10.0799 87.2876 TC 25 -10.0900 87.3107 1 5 282
1976312S09090 1977 134 SI MM BRIGITTA 1976-11-08 06:00:00 TS -10.0000 87.0000 main 1611 1611 O________OO___ jtwc_sh SH021977 -10.0000 87.0000 -1 -10.0000 87.0000 TC 25 -10.0000 87.0000 1 7 291
1976312S09090 1977 134 SI MM BRIGITTA 1976-11-08 09:00:00 TS -9.81995 86.5943 main 1635 1635 P________PP___ SH021977 -9.82990 86.6100 -1 -9.82990 86.6100 TC 25 -9.80005 86.5630 1 10 295
1976312S09090 1977 134 SI MM BRIGITTA 1976-11-08 12:00:00 TS -9.58333 86.0779 main 1670 1670 O________OP___ jtwc_sh SH021977 -9.60000 86.1000 -1 -9.60000 86.1000 TC 25 -9.54999 86.0339 1 12 294
1976312S09090 1977 134 SI MM BRIGITTA 1976-11-08 15:00:00 TS -9.31829 85.4708 main 1710 1710 P________PP___ SH021977 -9.32749 85.4873 -1 -9.32749 85.4873 TC 25 -9.29991 85.4379 1 14 291
1976312S09090 1977 134 SI MM BRIGITTA 1976-11-08 18:00:00 TS -9.10000 84.8000 main 1744 1714 O________OO___ jtwc_sh SH021977 -9.10000 84.8000 -1 -9.10000 84.8000 TC 25 -9.10000 84.8000 1 14 283
1976312S09090 1977 134 SI MM BRIGITTA 1976-11-08 21:00:00 TS -9.00881 84.1110 main 1714 1700 P________PP___ SH021977 -9.01245 84.1001 -1 -9.01245 84.1001 TC 25 -9.00153 84.1329 1 14 275
1976312S09090 1977 134 SI MM BRIGITTA 1976-11-09 00:00:00 TS -8.98681 83.4118 main 1698 1687 O________OP___ jtwc_sh SH021977 -9.00000 83.4000 -1 -9.00000 83.4000 TC 25 -8.96042 83.4354 1 14 271
1976312S09090 1977 134 SI MM BRIGITTA 1976-11-09 03:00:00 TS -8.97798 82.7284 main 1685 1677 P________PP___ SH021977 -8.98495 82.7200 -1 -8.98495 82.7200 TC 25 -8.96404 82.7452 1 13 269
1976312S09090 1977 134 SI MM BRIGITTA 1976-11-09 06:00:00 TS -9.00000 82.1000 main 1677 1673 O________OO___ jtwc_sh SH021977 -9.00000 82.1000 -1 -9.00000 82.1000 TC 25 -9.00000 82.1000 1 11 267
1976312S09090 1977 134 SI MM BRIGITTA 1976-11-09 09:00:00 TS -9.03569 81.5723 main 1673 1672 P________PP___ SH021977 -9.03483 81.5775 -1 -9.03483 81.5775 TC 25 -9.03741 81.5620 1 10 264
1976312S09090 1977 134 SI MM BRIGITTA 1976-11-09 12:00:00 TS -9.10135 81.0900 main 1681 1680 O________OP___ jtwc_sh SH021977 -9.10000 81.1000 -1 -9.10000 81.1000 TC 25 -9.10406 81.0700 1 10 261
1976312S09090 1977 134 SI MM BRIGITTA 1976-11-09 15:00:00 TS -9.18784 80.6027 main 1692 1692 P________PP___ SH021977 -9.18490 80.6075 -1 -9.18490 80.6075 TC 25 -9.19371 80.5931 1 10 259
1976312S09090 1977 134 SI MM BRIGITTA 1976-11-09 18:00:00 TS -9.30000 80.1000 main 1704 1704 O________OO___ jtwc_sh SH021977 -9.30000 80.1000 -1 -9.30000 80.1000 TC 25 -9.30000 80.1000 1 11 256
1976312S09090 1977 134 SI MM BRIGITTA 1976-11-09 21:00:00 TS -9.45022 79.5671 main 1729 1729 P________PP___ SH021977 -9.44991 79.5650 -1 -9.44991 79.5650 TC 25 -9.45083 79.5714 1 11 254
1976312S09090 1977 134 SI MM BRIGITTA 1976-11-10 00:00:00 TS -9.60311 79.0061 main 1745 1745 O________OP___ jtwc_sh SH021977 -9.60000 79.0000 -1 -9.60000 79.0000 TC 25 -9.60934 79.0182 1 12 256
1976312S09090 1977 134 SI MM BRIGITTA 1976-11-10 03:00:00 TS -9.73263 78.4253 main 1764 1764 P________PP___ SH021977 -9.72985 78.4225 -1 -9.72985 78.4225 TC 25 -9.73820 78.4309 1 12 261
1976312S09090 1977 134 SI MM BRIGITTA 1976-11-10 06:00:00 TS -9.80000 77.8000 main 1786 1786 O________OO___ jtwc_sh SH021977 -9.80000 77.8000 -1 -9.80000 77.8000 TC 25 -9.80000 77.8000 1 13 267
1976312S09090 1977 134 SI MM BRIGITTA 1976-11-10 09:00:00 TS -9.78968 77.1224 main 1801 1800 P________PP___ SH021977 -9.79490 77.1225 -1 -9.79490 77.1225 TC 25 -9.77925 77.1220 1 14 274
1976312S09090 1977 134 SI MM BRIGITTA 1976-11-10 12:00:00 TS -9.69493 76.4008 main 1809 1807 O________OP___ jtwc_sh SH021977 -9.70000 76.4000 -1 -9.70000 76.4000 TC 25 -9.68479 76.4024 1 15 280
1976312S09090 1977 134 SI MM BRIGITTA 1976-11-10 15:00:00 TS -9.53756 75.6572 main 1809 1809 P________PP___ SH021977 -9.54488 75.6576 -1 -9.54488 75.6576 TC 25 -9.52291 75.6566 1 15 285
1976312S09090 1977 134 SI MM BRIGITTA 1976-11-10 18:00:00 TS -9.30000 74.9000 main 1816 1807 O________OO___ jtwc_sh SH021977 -9.30000 74.9000 -1 -9.30000 74.9000 TC 25 -9.30000 74.9000 1 16 290
1976312S09090 1977 134 SI MM BRIGITTA 1976-11-10 21:00:00 TS -8.98215 74.1264 main 1816 1806 P________PP___ SH021977 -8.96485 74.1499 -1 -8.96485 74.1499 TC 25 -9.01676 74.0794 1 17 294
1976312S09090 1977 134 SI MM BRIGITTA 1976-11-11 00:00:00 TS -8.62693 73.3547 main 1806 1806 O________OP___ jtwc_sh SH021977 -8.60000 73.4000 -1 -8.60000 73.4000 TC 25 -8.68080 73.2641 1 17 294
1976312S09090 1977 134 SI MM BRIGITTA 1976-11-11 03:00:00 TS -8.29986 72.5656 main 1816 1816 P________PP___ SH021977 -8.28513 72.5900 -1 -8.28513 72.5900 TC 25 -8.32931 72.5168 1 16 294
1976312S09090 1977 134 SI MM BRIGITTA 1976-11-11 06:00:00 TS -8.00000 71.9000 main 1825 1821 O________OO___ jtwc_sh SH021977 -8.00000 71.9000 -1 -8.00000 71.9000 TC 25 -8.00000 71.9000 1 12 297
1976312S09090 1977 134 SI MM BRIGITTA 1976-11-11 09:00:00 TS -7.73702 71.4708 main 1819 1819 P________PP___ SH021977 -7.73481 71.4677 -1 -7.73481 71.4677 TC 25 -7.74143 71.4771 1 9 305
1976312S09090 1977 134 SI MM BRIGITTA 1976-11-11 12:00:00 TS -7.50389 71.1953 main 1819 1813 O________OP___ jtwc_sh SH021977 -7.50000 71.2000 -1 -7.50000 71.2000 TC 25 -7.51166 71.1860 1 7 312
1976312S09090 1977 134 SI MM BRIGITTA 1976-11-11 15:00:00 TS -7.29532 70.9823 main 1813 1807 P________PP___ SH021977 -7.29244 70.9851 -1 -7.29244 70.9851 TC 25 -7.30108 70.9769 1 6 316
1976312S09090 1977 134 SI MM BRIGITTA 1976-11-11 18:00:00 TS -7.10000 70.8000 main 1807 1802 O________OO___ jtwc_sh SH021977 -7.10000 70.8000 -1 -7.10000 70.8000 TC 25 -7.10000 70.8000 1 6 311
1976312S09090 1977 134 SI MM BRIGITTA 1976-11-11 21:00:00 TS -6.91115 70.5314 main 1809 1805 P________PP___ SH021977 -6.90002 70.5425 -1 -6.90002 70.5425 TC 25 -6.93341 70.5093 1 6 306
1976312S09090 1977 134 SI MM BRIGITTA 1976-11-12 00:00:00 TS -6.72248 70.2833 main 1805 1803 O________OP___ jtwc_sh SH021977 -6.70000 70.3000 -1 -6.70000 70.3000 TC 25 -6.76744 70.2498 1 6 310
1976312S09090 1977 134 SI MM BRIGITTA 1976-11-12 03:00:00 TS -6.54257 70.0868 main 1801 1791 P________PP___ SH021977 -6.52999 70.0975 -1 -6.52999 70.0975 TC 25 -6.56774 70.0654 1 5 326
1976312S09090 1977 134 SI MM BRIGITTA 1976-11-12 06:00:00 TS -6.30000 70.0000 main 1791 1757 O________OO___ jtwc_sh SH021977 -6.30000 70.0000 -1 -6.30000 70.0000 TC 25 -6.30000 70.0000 1 6 355
1976312S09090 1977 134 SI MM BRIGITTA 1976-11-12 09:00:00 TS -5.92230 70.0334 main 1757 1708 P________PP___ SH021977 -5.94495 70.0250 -1 -5.94495 70.0250 TC 25 -5.87701 70.0503 1 9 14
1976312S09090 1977 134 SI MM BRIGITTA 1976-11-12 12:00:00 TS -5.46407 70.2085 main 1708 1644 O________OP___ jtwc_sh SH021977 -5.50000 70.2000 -1 -5.50000 70.2000 TC 25 -5.39222 70.2255 1 11 25
1976312S09090 1977 134 SI MM BRIGITTA 1976-11-12 15:00:00 TS -4.96041 70.4876 main 1644 1573 P________PP___ SH021977 -4.98495 70.4751 -1 -4.98495 70.4751 TC 25 -4.91134 70.5128 1 12 36
1976312S09090 1977 134 SI MM BRIGITTA 1976-11-12 18:00:00 TS -4.50000 70.9000 main 1573 1511 O________OO___ jtwc_sh SH021977 -4.50000 70.9000 -1 -4.50000 70.9000 TC 25 -4.50000 70.9000 1 13 50
1976312S09090 1977 134 SI MM BRIGITTA 1976-11-12 21:00:00 TS -4.14478 71.4643 main 1495 1435 P________PP___ SH021977 -4.13257 71.4775 -1 -4.13257 71.4775 TC 25 -4.16921 71.4379 1 13 63
1976312S09090 1977 134 SI MM BRIGITTA 1976-11-13 00:00:00 TS -3.90854 72.0842 main 1435 1392 O________OP___ jtwc_sh SH021977 -3.90000 72.1000 -1 -3.90000 72.1000 TC 25 -3.92562 72.0526 1 13 73
1976312S09090 1977 134 SI MM BRIGITTA 1976-11-13 03:00:00 TS -3.77139 72.6586 main 1385 1358 P________PP___ SH021977 -3.76001 72.6674 -1 -3.76001 72.6674 TC 25 -3.79416 72.6410 1 10 84
1976312S09090 1977 134 SI MM BRIGITTA 1976-11-13 06:00:00 TS -3.80000 73.1000 main 1358 1352 O________OO___ jtwc_sh SH021977 -3.80000 73.1000 -1 -3.80000 73.1000 TC 25 -3.80000 73.1000 1 7 111
1976312S09090 1977 134 SI MM BRIGITTA 1976-11-13 09:00:00 TS -4.02749 73.3303 main 1364 1364 P________PP___ SH021977 -4.04745 73.3325 -1 -4.04745 73.3325 TC 25 -3.98757 73.3260 1 6 152
1976312S09090 1977 134 SI MM BRIGITTA 1976-11-13 12:00:00 TS -4.36740 73.4033 main 1395 1395 O________OP___ jtwc_sh SH021977 -4.40000 73.4000 -1 -4.40000 73.4000 TC 25 -4.30221 73.4097 1 7 175
1976312S09090 1977 134 SI MM BRIGITTA 1976-11-13 15:00:00 TS -4.70358 73.3929 main 1423 1423 P________PP___ SH021977 -4.72249 73.3950 -1 -4.72249 73.3950 TC 25 -4.66577 73.3886 1 6 190
1976312S09090 1977 134 SI MM BRIGITTA 1976-11-13 18:00:00 TS -5.00000 73.3000 main 1457 1457 O________OO___ jtwc_sh SH021977 -5.00000 73.3000 -1 -5.00000 73.3000 TC 25 -5.00000 73.3000 1 5 204
1976312S09090 1977 134 SI MM BRIGITTA 1976-11-13 21:00:00 TS -5.18209 73.1805 main 1482 1482 P________PP___ SH021977 -5.17250 73.1650 -1 -5.17250 73.1650 TC 25 -5.20125 73.2116 1 4 221
1976312S09090 1977 134 SI MM BRIGITTA 1976-11-14 00:00:00 TS -5.32000 73.0225 main 1503 1503 O________OP___ jtwc_sh SH021977 -5.30000 73.0000 -1 -5.30000 73.0000 TC 25 -5.36001 73.0676 1 4 228
1976312S09090 1977 134 SI MM BRIGITTA 1976-11-14 03:00:00 TS -5.46792 72.8632 main 1528 1528 P________PP___ SH021977 -5.45750 72.8500 -1 -5.45750 72.8500 TC 25 -5.48875 72.8897 1 4 229
1976312S09090 1977 134 SI MM BRIGITTA 1976-11-14 06:00:00 TS -5.60000 72.7000 main 1550 1550 O________OO___ jtwc_sh SH021977 -5.60000 72.7000 -1 -5.60000 72.7000 TC 25 -5.60000 72.7000 1 4 232
1976312S09090 1977 134 SI MM BRIGITTA 1976-11-14 09:00:00 TS -5.71383 72.5531 main 1565 1565 P________PP___ SH021977 -5.70749 72.5575 -1 -5.70749 72.5575 TC 25 -5.72653 72.5444 1 4 235
1976312S09090 1977 134 SI MM BRIGITTA 1976-11-14 12:00:00 TS -5.81248 72.3933 main 1587 1587 O________OP___ jtwc_sh SH021977 -5.80000 72.4000 -1 -5.80000 72.4000 TC 25 -5.83744 72.3800 1 4 240
1976312S09090 1977 134 SI MM BRIGITTA 1976-11-14 15:00:00 TS -5.91488 72.2052 main 1608 1608 P________PP___ SH021977 -5.90750 72.2075 -1 -5.90750 72.2075 TC 25 -5.92964 72.2006 1 4 244
1976312S09090 1977 134 SI MM BRIGITTA 1976-11-14 18:00:00 TS -6.00000 72.0000 main 1630 1630 O________OO___ jtwc_sh SH021977 -6.00000 72.0000 -1 -6.00000 72.0000 TC 25 -6.00000 72.0000 1 4 249
1976312S09090 1977 134 SI MM BRIGITTA 1976-11-14 21:00:00 TS -6.06010 71.8208 main 1652 1652 P________PP___ SH021977 -6.06497 71.8150 -1 -6.06497 71.8150 TC 25 -6.05035 71.8324 1 4 256
1976312S09090 1977 134 SI MM BRIGITTA 1976-11-15 00:00:00 TS -6.09318 71.6116 main 1665 1665 O________OP___ jtwc_sh SH021977 -6.10000 71.6000 -1 -6.10000 71.6000 TC 25 -6.07953 71.6349 1 5 264
1976312S09090 1977 134 SI MM BRIGITTA 1976-11-15 03:00:00 TS -6.10792 71.3633 main 1678 1678 P________PP___ SH021977 -6.11490 71.3600 -1 -6.11490 71.3600 TC 25 -6.09397 71.3699 1 6 269
1976312S09090 1977 134 SI MM BRIGITTA 1976-11-15 06:00:00 TS -6.10000 71.0000 main 1704 1704 O________OO___ jtwc_sh SH021977 -6.10000 71.0000 -1 -6.10000 71.0000 TC 25 -6.10000 71.0000 1 9 274
1976312S09090 1977 134 SI MM BRIGITTA 1976-11-15 09:00:00 TS -6.04796 70.4570 main 1730 1730 P________PP___ SH021977 -6.04253 70.4524 -1 -6.04253 70.4524 TC 25 -6.05881 70.4661 1 12 275
1976312S09090 1977 134 SI MM BRIGITTA 1976-11-15 12:00:00 TS -6.00601 69.8106 main 1780 1780 O________OP___ jtwc_sh SH021977 -6.00000 69.8000 -1 -6.00000 69.8000 TC 25 -6.01803 69.8317 1 13 272
1976312S09090 1977 134 SI MM BRIGITTA 1976-11-15 15:00:00 TS -6.00937 69.1522 main 1817 1817 P________PP___ SH021977 -6.00498 69.1499 -1 -6.00498 69.1499 TC 25 -6.01816 69.1566 1 13 266
1976312S09090 1977 134 SI MM BRIGITTA 1976-11-15 18:00:00 TS -6.10000 68.5000 main 1867 1867 O________OO___ jtwc_sh SH021977 -6.10000 68.5000 -1 -6.10000 68.5000 TC 25 -6.10000 68.5000 1 13 257
1976312S09090 1977 134 SI MM BRIGITTA 1976-11-15 21:00:00 TS -6.30925 67.8780 main 1897 1832 P________PP___ SH021977 -6.30498 67.8700 -1 -6.30498 67.8700 TC 25 -6.31781 67.8940 1 13 247
1976312S09090 1977 134 SI MM BRIGITTA 1976-11-16 00:00:00 TS -6.60586 67.3078 main 1832 1774 O________OP___ jtwc_sh SH021977 -6.60000 67.3000 -1 -6.60000 67.3000 TC 25 -6.61757 67.3233 1 12 239
1976312S09090 1977 134 SI MM BRIGITTA 1976-11-16 03:00:00 TS -6.94781 66.8036 main 1774 1715 P________PP___ SH021977 -6.94246 66.7975 -1 -6.94246 66.7975 TC 25 -6.95853 66.8158 1 10 220
1976312S09090 1977 134 SI MM BRIGITTA 1976-11-16 06:00:00 TS -7.40000 66.6286 reunion main 1715 1681 O____O___OO_O_ jtwc_sh SH021977 -7.30000 66.4000 -1 -8.00000 68.0000 3 9.90000 -7.30000 66.4000 TC 25 -7.30000 66.4000 1 -8.00000 68.0000 TC 35 8 204
1976312S09090 1977 134 SI MM BRIGITTA 1976-11-16 09:00:00 TS -7.70209 66.4632 main 1681 1650 P____P___PP_P_ SH021977 -7.61494 66.1049 -1 -7.99260 67.5449 3 -7.61494 66.1049 TC 25 -7.58588 66.0982 1 -7.99260 67.5449 TC 35 7 210
1976312S09090 1977 134 SI MM BRIGITTA 1976-11-16 12:00:00 TS -7.95879 66.2971 reunion main 1640 1610 O____O___OP_O_ jtwc_sh SH021977 -7.90000 65.9000 -1 -8.10000 67.1000 99 9.90000 -7.90000 65.9000 TC 25 -7.86455 65.8872 1 -8.10000 67.1000 TC 35 6 213
1976312S09090 1977 134 SI MM BRIGITTA 1976-11-16 15:00:00 TS -8.24418 66.1115 main 1610 1569 P____P___PP_P_ SH021977 -8.15747 65.7349 -1 -8.38498 66.6776 99 -8.15747 65.7349 TC 25 -8.13598 65.7326 1 -8.38498 66.6776 TC 35 7 216
1976312S09090 1977 134 SI MM BRIGITTA 1976-11-16 18:00:00 TS -8.52000 65.8800 reunion main 1569 1539 O____O___OO_O_ jtwc_sh SH021977 -8.40000 65.6000 -1 -8.70000 66.3000 99 9.90000 -8.40000 65.6000 TC 25 -8.40000 65.6000 1 -8.70000 66.3000 TC 35 7 222
1976312S09090 1977 134 SI MM BRIGITTA 1976-11-16 21:00:00 TS -8.73682 65.6648 main 1539 1508 P____P___PP_P_ SH021977 -8.64999 65.4500 -1 -8.85742 65.9923 99 -8.64999 65.4500 TC 25 -8.66931 65.4396 1 -8.85742 65.9923 TC 37 6 224
1976312S09090 1977 134 SI MM BRIGITTA 1976-11-17 00:00:00 TS -8.94598 65.4585 reunion main 1508 1462 O____O___OP_O_ jtwc_sh SH021977 -8.90000 65.3000 -1 -9.00000 65.7000 99 9.90000 -8.90000 65.3000 TC 25 -8.92991 65.2924 1 -9.00000 65.7000 TC 40 6 224
1976312S09090 1977 134 SI MM BRIGITTA 1976-11-17 03:00:00 TS -9.19513 65.2208 main 1462 1431 P____P___PP_P_ SH021977 -9.15749 65.1500 -1 -9.24256 65.3276 99 -9.15749 65.1500 TC 25 -9.17556 65.1490 1 -9.24256 65.3276 TC 42 7 223
1976312S09090 1977 134 SI MM BRIGITTA 1976-11-17 06:00:00 TS -9.44000 65.0000 reunion main 1431 1406 O____O___OO_O_ jtwc_sh SH021977 -9.40000 65.0000 -1 -9.50000 65.0000 3 9.90000 -9.40000 65.0000 TC 25 -9.40000 65.0000 1 -9.50000 65.0000 TC 45 6 219
1976312S09090 1977 134 SI MM BRIGITTA 1976-11-17 09:00:00 TS -9.65808 64.8434 main 1391 1376 P____P___PP_P_ SH021977 -9.61498 64.8575 -1 -9.72991 64.8349 3 -9.61498 64.8575 TC 25 -9.60061 64.8321 1 -9.72991 64.8349 TC 47 5 217
1976312S09090 1977 134 SI MM BRIGITTA 1976-11-17 12:00:00 TS -9.83600 64.6915 reunion main 1376 1345 O____O___OP_O_ jtwc_sh SH021977 -9.80000 64.7000 -1 -9.90000 64.7000 99 9.90000 -9.80000 64.7000 TC 25 -9.77998 64.6574 1 -9.90000 64.7000 TC 50 5 230
1976312S09090 1977 134 SI MM BRIGITTA 1976-11-17 15:00:00 TS -9.95789 64.4758 main 1345 1324 P____P___PP_P_ SH021977 -9.95751 64.5000 -1 -9.96504 64.4500 99 -9.95751 64.5000 TC 25 -9.94436 64.4790 1 -9.96504 64.4500 TC 50 5 242
1976312S09090 1977 134 SI MM BRIGITTA 1976-11-17 18:00:00 TS -10.0600 64.2600 reunion main 1324 1303 O____O___OO_O_ jtwc_sh SH021977 -10.1000 64.3000 -1 -10.0000 64.2000 99 9.90000 -10.1000 64.3000 TC 25 -10.1000 64.3000 1 -10.0000 64.2000 TC 50 4 238
1976312S09090 1977 134 SI MM BRIGITTA 1976-11-17 21:00:00 TS -10.1818 64.1084 main 1303 1288 P____P___PP_P_ SH021977 -10.2500 64.1500 -1 -10.0700 64.0424 99 -10.2500 64.1500 TC 25 -10.2692 64.1574 1 -10.0700 64.0424 TC 47 4 228
1976312S09090 1977 134 SI MM BRIGITTA 1976-11-18 00:00:00 TS -10.3259 63.9620 reunion main 1288 1257 O____O___OP_O_ jtwc_sh SH021977 -10.4000 64.0000 -1 -10.2000 63.9000 99 9.90000 -10.4000 64.0000 TC 25 -10.4297 64.0099 1 -10.2000 63.9000 TC 45 5 224
1976312S09090 1977 134 SI MM BRIGITTA 1976-11-18 03:00:00 TS -10.5210 63.7815 main 1257 1227 P____P___PP_P_ SH021977 -10.5574 63.8450 -1 -10.4575 63.6926 99 -10.5574 63.8450 TC 25 -10.5754 63.8324 1 -10.4575 63.6926 TC 45 5 227
1976312S09090 1977 134 SI MM BRIGITTA 1976-11-18 06:00:00 TS -10.7000 63.5600 reunion main 1227 1201 O____O___OO_O_ jtwc_sh SH021977 -10.7000 63.6000 -1 -10.7000 63.5000 3 9.90000 -10.7000 63.6000 TC 25 -10.7000 63.6000 1 -10.7000 63.5000 TC 45 6 241
1976312S09090 1977 134 SI MM BRIGITTA 1976-11-18 09:00:00 TS -10.8013 63.2573 main 1201 1175 P____P___PP_P_ SH021977 -10.8152 63.1650 -1 -10.7875 63.3774 3 -10.8152 63.1650 TC 25 -10.8012 63.2014 1 -10.7875 63.3774 TC 45 6 255
1976312S09090 1977 134 SI MM BRIGITTA 1976-11-18 12:00:00 TS -10.8562 62.9520 reunion main 1175 1160 O____O___OP_O_ jtwc_sh SH021977 -10.9000 62.7000 -1 -10.8000 63.3000 99 9.90000 -10.9000 62.7000 TC 25 -10.8808 62.7601 1 -10.8000 63.3000 TC 45 6 261
1976312S09090 1977 134 SI MM BRIGITTA 1976-11-18 15:00:00 TS -10.8890 62.6968 main 1160 1150 P____P___PP_P_ SH021977 -10.9500 62.3175 -1 -10.8000 63.2425 99 -10.9500 62.3175 TC 25 -10.9449 62.3638 1 -10.8000 63.2425 TC 42 4 261
1976312S09090 1977 134 SI MM BRIGITTA 1976-11-18 18:00:00 TS -10.9200 62.5400 reunion main 1150 1140 O____O___OO_O_ jtwc_sh SH021977 -11.0000 62.1000 -1 -10.8000 63.2000 99 9.90000 -11.0000 62.1000 TC 25 -11.0000 62.1000 1 -10.8000 63.2000 TC 40 2 236
1976312S09090 1977 134 SI MM BRIGITTA 1976-11-18 21:00:00 TS -10.9987 62.5300 main 1140 1135 P____P___PP_P_ SH021977 -11.1075 62.1324 -1 -10.8425 63.1500 99 -11.1075 62.1324 TC 25 -11.0935 62.0851 1 -10.8425 63.1500 TC 40 2 162
1976312S09090 1977 134 SI MM BRIGITTA 1976-11-19 00:00:00 TS -11.0750 62.6014 reunion main 1135 1135 O____O___OP_O_ jtwc_sh SH021977 -11.2000 62.3000 -1 -10.9000 63.1000 99 9.90000 -11.2000 62.3000 TC 25 -11.1748 62.2072 1 -10.9000 63.1000 TC 40 2 130
1976312S09090 1977 134 SI MM BRIGITTA 1976-11-19 03:00:00 TS -11.1307 62.6891 main 1140 1140 P____P___PP_P_ SH021977 -11.2375 62.4500 -1 -10.9800 63.0725 99 -11.2375 62.4500 TC 25 -11.2187 62.4007 1 -10.9800 63.0725 TC 37 2 107
1976312S09090 1977 134 SI MM BRIGITTA 1976-11-19 06:00:00 TS -11.1200 62.7600 reunion main 1145 1145 O____O___OO_O_ jtwc_sh SH021977 -11.2000 62.6000 -1 -11.0000 63.0000 3 9.90000 -11.2000 62.6000 TC 25 -11.2000 62.6000 1 -11.0000 63.0000 TC 35 1 27
1976312S09090 1977 134 SI MM BRIGITTA 1976-11-19 09:00:00 TS -11.0139 62.7444 main 1150 1150 P____P___PP_P_ SH021977 -11.0800 62.7075 -1 -10.9100 62.7999 3 -11.0800 62.7075 TC 25 -11.0897 62.7073 1 -10.9100 62.7999 TC 35 3 353
1976312S09090 1977 134 SI MM BRIGITTA 1976-11-19 12:00:00 TS -10.8235 62.7215 reunion main 1170 1170 O____O___OP_O_ jtwc_sh SH021977 -10.9000 62.8000 -1 -10.7000 62.6000 99 9.90000 -10.9000 62.8000 TC 25 -10.9175 62.8076 1 -10.7000 62.6000 TC 35 5 0
1976312S09090 1977 134 SI MM BRIGITTA 1976-11-19 15:00:00 TS -10.5623 62.7428 main 1190 1190 P____P___PP_P_ SH021977 -10.7000 62.9000 -1 -10.3500 62.5050 99 -10.7000 62.9000 TC 25 -10.7115 62.9041 1 -10.3500 62.5050 TC 35 5 9
1976312S09090 1977 134 SI MM BRIGITTA 1976-11-19 18:00:00 TS -10.3000 62.8000 reunion main 1225 1225 O____O___OO_O_ jtwc_sh SH021977 -10.5000 63.0000 -1 -10.0000 62.5000 99 9.90000 -10.5000 63.0000 TC 25 -10.5000 63.0000 1 -10.0000 62.5000 TC 35 4 18
1976312S09090 1977 134 SI MM BRIGITTA 1976-11-19 21:00:00 TS -10.1401 62.8831 main 1250 1250 P____P___PP_P_ SH021977 -10.3500 63.1000 -1 -9.85000 62.5700 99 -10.3500 63.1000 TC 25 -10.3005 63.0756 1 -9.85000 62.5700 TC 32 4 31
1976312S09090 1977 134 SI MM BRIGITTA 1976-11-20 00:00:00 TS -9.98097 62.9910 reunion main 1265 1265 O____O___OP_O_ jtwc_sh SH021977 -10.2000 63.2000 -1 -9.70000 62.7000 99 9.90000 -10.2000 63.2000 TC 25 -10.1049 63.1550 1 -9.70000 62.7000 TC 30 5 29
1976312S09090 1977 134 SI MM BRIGITTA 1976-11-20 03:00:00 TS -9.72935 63.1114 main 1300 1300 P____P___PP_P_ SH021977 -9.99248 63.2850 -1 -9.36502 62.8651 99 -9.99248 63.2850 TC 25 -9.93176 63.2569 1 -9.36502 62.8651 TC 30 5 31
1976312S09090 1977 134 SI MM BRIGITTA 1976-11-20 06:00:00 TS -9.53333 63.2667 reunion main 1330 1330 O____O___OO_O_ jtwc_sh SH021977 -9.80000 63.4000 -1 -9.00000 63.0000 2 9.90000 -9.80000 63.4000 TC 25 -9.80000 63.4000 1 -9.00000 63.0000 TC 30 4 48
1976312S09090 1977 134 SI MM BRIGITTA 1976-11-20 09:00:00 TS -9.44306 63.4406 main 1345 1345 P____P___PP_P_ SH021977 -9.66248 63.5700 -1 -8.72130 63.0192 2 -9.66248 63.5700 TC 25 -9.71979 63.6150 1 -8.72130 63.0192 TC 30 4 81
1976312S09090 1977 134 SI MM BRIGITTA 1976-11-20 12:00:00 TS -9.46647 63.7057 reunion main 1350 1350 O____O___OP_O_ jtwc_sh SH021977 -9.60000 63.8000 -1 -8.50000 63.0000 99 9.90000 -9.60000 63.8000 TC 25 -9.68265 63.8700 1 -8.50000 63.0000 TC 30 7 107
1976312S09090 1977 134 SI MM BRIGITTA 1976-11-20 15:00:00 TS -9.64474 64.1083 main 1361 1351 P____P___PP_P_ SH021977 -9.62753 64.0925 -1 -8.33505 63.0834 99 -9.62753 64.0925 TC 25 -9.67916 64.1400 1 -8.33505 63.0834 TC 7 109
1976312S09090 1977 134 SI MM BRIGITTA 1976-11-20 18:00:00 TS -9.70000 64.4000 reunion main 1368 1368 O____P___OO_P_ jtwc_sh SH021977 -9.70000 64.4000 -1 -8.23687 63.2305 99 -9.70000 64.4000 TC 25 -9.70000 64.4000 1 -8.23687 63.2305 TC 6 100
1976312S09090 1977 134 SI MM BRIGITTA 1976-11-20 21:00:00 TS -9.74416 64.6612 main 1385 1376 P____P___PP_P_ SH021977 -9.74999 64.6725 -1 -8.19833 63.4322 99 -9.74999 64.6725 TC 25 -9.73249 64.6387 1 -8.19833 63.4322 TC 5 101
1976312S09090 1977 134 SI MM BRIGITTA 1976-11-21 00:00:00 TS -9.79500 64.8866 reunion main 1387 1387 O____P___OP_P_ jtwc_sh SH021977 -9.80000 64.9000 -1 -8.21231 63.6795 99 -9.80000 64.9000 TC 25 -9.78501 64.8599 1 -8.21231 63.6795 TC 4 105
1976312S09090 1977 134 SI MM BRIGITTA 1976-11-21 03:00:00 TS -9.85333 65.0704 main 1390 1390 P____P___PP_P_ SH021977 -9.85748 65.0800 -1 -8.27168 63.9634 99 -9.85748 65.0800 TC 25 -9.84501 65.0512 1 -8.27168 63.9634 TC 3 109
1976312S09090 1977 134 SI MM BRIGITTA 1976-11-21 06:00:00 TS -9.90000 65.2000 reunion main 1396 1396 O____P___OO_P_ jtwc_sh SH021977 -9.90000 65.2000 -1 -8.36933 64.2748 99 -9.90000 65.2000 TC 25 -9.90000 65.2000 1 -8.36933 64.2748 TC 2 106
1976312S09090 1977 134 SI MM BRIGITTA 1976-11-21 09:00:00 TS -9.90934 65.2730 main 1402 1402 P____P___PP_P_ SH021977 -9.89999 65.2650 -1 -8.49816 64.6048 99 -9.89999 65.2650 TC 25 -9.92805 65.2891 1 -8.49816 64.6048 TC 1 99
1976312S09090 1977 134 SI MM BRIGITTA 1976-11-21 12:00:00 TS -9.91664 65.3125 reunion main 1402 1402 O____P___OP_P_ jtwc_sh SH021977 -9.90000 65.3000 -1 -8.65107 64.9443 99 -9.90000 65.3000 TC 25 -9.94991 65.3376 1 -8.65107 64.9443 TC 1 119
1976312S09090 1977 134 SI MM BRIGITTA 1976-11-21 15:00:00 TS -9.95227 65.3507 main 1400 1400 P____P___PP_P_ SH021977 -9.94249 65.3425 -1 -8.82101 65.2842 99 -9.94249 65.3425 TC 25 -9.97182 65.3672 1 -8.82101 65.2842 TC 1 135
1976312S09090 1977 134 SI MM BRIGITTA 1976-11-21 18:00:00 TS -10.0000 65.4000 reunion main 1400 1400 O____P___OO_P_ jtwc_sh SH021977 -10.0000 65.4000 -1 -9.00093 65.6152 99 -10.0000 65.4000 TC 25 -10.0000 65.4000 1 -9.00093 65.6152 TC 2 125
1976312S09090 1977 134 SI MM BRIGITTA 1976-11-21 21:00:00 TS -10.0503 65.4933 main 1397 1397 P____P___PP_P_ SH021977 -10.0500 65.5000 -1 -9.18383 65.9283 99 -10.0500 65.5000 TC 25 -10.0510 65.4800 1 -9.18383 65.9283 TC 2 119
1976312S09090 1977 134 SI MM BRIGITTA 1976-11-22 00:00:00 TS -10.1025 65.5883 reunion main 1403 1401 O____P___OP_P_ jtwc_sh SH021977 -10.1000 65.6000 -1 -9.36273 66.2141 99 -10.1000 65.6000 TC 25 -10.1075 65.5650 1 -9.36273 66.2141 TC 2 124
1976312S09090 1977 134 SI MM BRIGITTA 1976-11-22 03:00:00 TS -10.1584 65.6575 main 1401 1401 P____P___PP_P_ SH021977 -10.1575 65.6650 -1 -9.53070 66.4635 99 -10.1575 65.6650 TC 25 -10.1603 65.6425 1 -9.53070 66.4635 TC 1 131
1976312S09090 1977 134 SI MM BRIGITTA 1976-11-22 06:00:00 TS -10.2000 65.7000 reunion main 1401 1401 O____P___OO_P_ jtwc_sh SH021977 -10.2000 65.7000 -1 -9.68082 66.6671 99 -10.2000 65.7000 TC 25 -10.2000 65.7000 1 -9.68082 66.6671 TC 2 93
1976312S09090 1977 134 SI MM BRIGITTA 1976-11-22 09:00:00 TS -10.1723 65.8901 main 1414 1414 P____P___PP_P_ SH021977 -10.2075 65.7075 -1 -9.80622 66.8157 99 -10.2075 65.7075 TC 25 -10.2144 65.7216 1 -9.80622 66.8157 TC 3 77
1976312S09090 1977 134 SI MM BRIGITTA 1976-11-22 12:00:00 TS -10.1287 66.0056 reunion main 1430 1430 O____O___OP_O_ jtwc_sh SH021977 -10.2000 65.7000 -1 -9.90000 66.9000 99 9.90000 -10.2000 65.7000 TC 25 -10.2150 65.7225 1 -9.90000 66.9000 TC 30 2 76
1976312S09090 1977 134 SI MM BRIGITTA 1976-11-22 15:00:00 TS -10.1185 66.1027 main 1436 1436 P____P___PP_P_ SH021977 -10.2000 65.7000 -1 -9.95114 66.9167 99 -10.2000 65.7000 TC 25 -10.2081 65.7122 1 -9.95114 66.9167 TC 30 2 87
1976312S09090 1977 134 SI MM BRIGITTA 1976-11-22 18:00:00 TS -10.1200 66.1800 reunion main 1443 1443 O____O___OO_O_ jtwc_sh SH021977 -10.2000 65.7000 -1 -10.0000 66.9000 99 9.90000 -10.2000 65.7000 TC 25 -10.2000 65.7000 1 -10.0000 66.9000 TC 30 1 107
1976312S09090 1977 134 SI MM BRIGITTA 1976-11-22 21:00:00 TS -10.1346 66.1622 main 1443 1427 P____P___PP_P_ SH021977 -10.2000 65.7000 -1 -10.0425 66.8575 99 -10.2000 65.7000 TC 25 -10.1878 65.6959 1 -10.0425 66.8575 TC 30 1 231
1976312S09090 1977 134 SI MM BRIGITTA 1976-11-23 00:00:00 TS -10.1555 66.1385 reunion main 1427 1427 O____O___OP_O_ jtwc_sh SH021977 -10.2000 65.7000 -1 -10.1000 66.8000 99 9.90000 -10.2000 65.7000 TC 25 -10.1775 65.6925 1 -10.1000 66.8000 TC 30 1 216
1976312S09090 1977 134 SI MM BRIGITTA 1976-11-23 03:00:00 TS -10.1897 66.1186 main 1427 1427 P____P___PP_P_ SH021977 -10.1925 65.7000 -1 -10.1925 66.7500 99 -10.1925 65.7000 TC 25 -10.1784 65.6928 1 -10.1925 66.7500 TC 30 1 209
1976312S09090 1977 134 SI MM BRIGITTA 1976-11-23 06:00:00 TS -10.2400 66.1000 reunion main 1427 1419 O____O___OO_O_ jtwc_sh SH021977 -10.2000 65.7000 -1 -10.3000 66.7000 2 9.90000 -10.2000 65.7000 TC 25 -10.2000 65.7000 1 -10.3000 66.7000 TC 30 1 196
1976312S09090 1977 134 SI MM BRIGITTA 1976-11-23 09:00:00 TS -10.3039 66.0814 main 1419 1410 P____P___PP_P_ SH021977 -10.2350 65.6925 -1 -10.4000 66.6500 2 -10.2350 65.6925 TC 25 -10.2494 65.7219 1 -10.4000 66.6500 TC 30 1 193
1976312S09090 1977 134 SI MM BRIGITTA 1976-11-23 12:00:00 TS -10.3840 66.0700 reunion main 1410 1401 O____O___OP_O_ jtwc_sh SH021977 -10.3000 65.7000 -1 -10.5000 66.6000 99 9.90000 -10.3000 65.7000 TC 25 -10.3200 65.7500 1 -10.5000 66.6000 TC 30 2 0
1976312S09090 1977 134 SI MM BRIGITTA 1976-11-23 15:00:00 TS -10.4811 66.0756 main 1401 1392 P____P___PP_P_ SH021977 -10.3925 65.7500 -1 -10.6075 66.5500 99 -10.3925 65.7500 TC 25 -10.4056 65.7781 1 -10.6075 66.5500 TC 30 2 172
1976312S09090 1977 134 SI MM BRIGITTA 1976-11-23 18:00:00 TS -10.5800 66.0800 reunion main 1392 1384 O____O___OO_O_ jtwc_sh SH021977 -10.5000 65.8000 -1 -10.7000 66.5000 99 9.90000 -10.5000 65.8000 TC 25 -10.5000 65.8000 1 -10.7000 66.5000 TC 30 2 0
1976312S09090 1977 134 SI MM BRIGITTA 1976-11-23 21:00:00 TS -10.6632 66.0652 main 1384 1377 P____P___PP_P_ SH021977 -10.6000 65.8075 -1 -10.7575 66.4500 99 -10.6000 65.8075 TC 25 -10.6009 65.8113 1 -10.7575 66.4500 TC 32 2 196
1976312S09090 1977 134 SI MM BRIGITTA 1976-11-24 00:00:00 TS -10.7415 66.0430 reunion main 1377 1368 O____O___OP_O_ jtwc_sh SH021977 -10.7000 65.8000 -1 -10.8000 66.4000 99 9.90000 -10.7000 65.8000 TC 25 -10.7075 65.8150 1 -10.8000 66.4000 TC 35 2 191
1976312S09090 1977 134 SI MM BRIGITTA 1976-11-24 03:00:00 TS -10.8281 66.0192 main 1368 1360 P____P___PP_P_ SH021977 -10.8075 65.8000 -1 -10.8575 66.3425 99 -10.8075 65.8000 TC 25 -10.8103 65.8113 1 -10.8575 66.3425 TC 37 2 194
1976312S09090 1977 134 SI MM BRIGITTA 1976-11-24 06:00:00 TS -10.9000 66.0000 reunion main 1360 1360 O____O___OO_O_ jtwc_sh SH021977 -10.9000 65.8000 -1 -10.9000 66.3000 3 9.90000 -10.9000 65.8000 TC 25 -10.9000 65.8000 1 -10.9000 66.3000 TC 40 1 0
1976312S09090 1977 134 SI MM BRIGITTA 1976-11-24 09:00:00 TS -10.9359 65.9994 main 1360 1351 P____P___PP_P_ SH021977 -10.9575 65.8075 -1 -10.9000 66.3000 3 -10.9575 65.8075 TC 25 -10.9644 65.7822 1 -10.9000 66.3000 TC 42 1 203
1976312S09090 1977 134 SI MM BRIGITTA 1976-11-24 12:00:00 TS -10.9630 65.9915 reunion main 1351 1344 O____O___OP_O_ jtwc_sh SH021977 -11.0000 65.8000 -1 -10.9000 66.3000 99 9.90000 -11.0000 65.8000 TC 25 -11.0150 65.7575 1 -10.9000 66.3000 TC 45 1 215
1976312S09090 1977 134 SI MM BRIGITTA 1976-11-24 15:00:00 TS -11.0086 65.9458 main 1344 1335 P____P___PP_P_ SH021977 -11.0500 65.7500 -1 -10.9425 66.2500 99 -11.0500 65.7500 TC 25 -11.0581 65.7291 1 -10.9425 66.2500 TC 45 1 222
1976312S09090 1977 134 SI MM BRIGITTA 1976-11-24 18:00:00 TS -11.0600 65.9000 reunion main 1335 1335 O____O___OO_O_ jtwc_sh SH021977 -11.1000 65.7000 -1 -11.0000 66.2000 99 9.90000 -11.1000 65.7000 TC 25 -11.1000 65.7000 1 -11.0000 66.2000 TC 45 1 200
1976312S09090 1977 134 SI MM BRIGITTA 1976-11-24 21:00:00 TS -11.1067 65.9071 main 1335 1327 P____P___PP_P_ SH021977 -11.1500 65.7000 -1 -11.0500 66.2000 99 -11.1500 65.7000 TC 25 -11.1336 65.7357 1 -11.0500 66.2000 TC 47 1 166
1976312S09090 1977 134 SI MM BRIGITTA 1976-11-25 00:00:00 TS -11.1539 65.9124 reunion main 1327 1327 O____O___OP_O_ jtwc_sh SH021977 -11.2000 65.7000 -1 -11.1000 66.2000 99 9.90000 -11.2000 65.7000 TC 25 -11.1696 65.7622 1 -11.1000 66.2000 TC 50 1 0
1976312S09090 1977 134 SI MM BRIGITTA 1976-11-25 03:00:00 TS -11.1891 65.9025 main 1327 1311 P____P___PP_P_ SH021977 -11.2349 65.6949 -1 -11.1274 66.1949 99 -11.2349 65.6949 TC 25 -11.2209 65.7325 1 -11.1274 66.1949 TC 52 2 226
1976312S09090 1977 134 SI MM BRIGITTA 1976-11-25 06:00:00 TS -11.2600 65.8000 reunion main 1311 1289 O____O___OO_O_ jtwc_sh SH021977 -11.3000 65.6000 -1 -11.2000 66.1000 3 9.90000 -11.3000 65.6000 TC 25 -11.3000 65.6000 1 -11.2000 66.1000 TC 55 4 238
1976312S09090 1977 134 SI MM BRIGITTA 1976-11-25 09:00:00 TS -11.4156 65.5390 main 1282 1244 P____P___PP_P_ SH021977 -11.4349 65.3675 -1 -11.3851 65.8301 3 -11.4349 65.3675 TC 25 -11.4379 65.3001 1 -11.3851 65.8301 TC 55 7 241
1976312S09090 1977 134 SI MM BRIGITTA 1976-11-25 12:00:00 TS -11.6001 65.1796 reunion main 1244 1199 O____O___OP_O_ jtwc_sh SH021977 -11.6000 65.0000 -1 -11.6000 65.5000 99 9.90000 -11.6000 65.0000 TC 25 -11.6005 64.8980 1 -11.6000 65.5000 TC 55 8 244
1976312S09090 1977 134 SI MM BRIGITTA 1976-11-25 15:00:00 TS -11.7676 64.7954 main 1199 1163 P____P___PP_P_ SH021977 -11.7652 64.5076 -1 -11.7724 65.2575 99 -11.7652 64.5076 TC 25 -11.7629 64.4469 1 -11.7724 65.2575 TC 55 8 249
1976312S09090 1977 134 SI MM BRIGITTA 1976-11-25 18:00:00 TS -11.9000 64.4000 reunion main 1163 1135 O____O___OO_O_ jtwc_sh SH021977 -11.9000 64.0000 -1 -11.9000 65.0000 99 9.90000 -11.9000 64.0000 TC 25 -11.9000 64.0000 1 -11.9000 65.0000 TC 55 8 255
1976312S09090 1977 134 SI MM BRIGITTA 1976-11-25 21:00:00 TS -11.9715 64.0424 main 1128 1110 P____P___PP_P_ SH021977 -11.9649 63.6274 -1 -11.9725 64.6650 99 -11.9649 63.6274 TC 25 -11.9827 63.6273 1 -11.9725 64.6650 TC 55 7 261
1976312S09090 1977 134 SI MM BRIGITTA 1976-11-26 00:00:00 TS -12.0075 63.6940 reunion main 1110 1091 O____O___OP_O_ jtwc_sh SH021977 -12.0000 63.3000 -1 -12.0000 64.3000 99 9.90000 -12.0000 63.3000 TC 25 -12.0373 63.2698 1 -12.0000 64.3000 TC 55 7 265
1976312S09090 1977 134 SI MM BRIGITTA 1976-11-26 03:00:00 TS -12.0346 63.3454 main 1086 1059 P____P___PP_P_ SH021977 -12.0500 62.9425 -1 -11.9999 63.9574 99 -12.0500 62.9425 TC 25 -12.0733 62.9274 1 -11.9999 63.9574 TC 57 7 266
1976312S09090 1977 134 SI MM BRIGITTA 1976-11-26 06:00:00 TS -12.0600 63.0000 reunion main 1059 1042 O____O___OO_O_ jtwc_sh SH021977 -12.1000 62.6000 -1 -12.0000 63.6000 3 9.90000 -12.1000 62.6000 TC 25 -12.1000 62.6000 1 -12.0000 63.6000 TC 60 7 264
1976312S09090 1977 134 SI MM BRIGITTA 1976-11-26 09:00:00 TS -12.1102 62.6580 main 1042 1011 P____P___PP_P_ SH021977 -12.1574 62.2925 -1 -12.0500 63.2076 3 -12.1574 62.2925 TC 25 -12.1360 62.2897 1 -12.0500 63.2076 TC 60 7 262
1976312S09090 1977 134 SI MM BRIGITTA 1976-11-26 12:00:00 TS -12.1529 62.3185 reunion main 1011 996 O____O___OP_O_ jtwc_sh SH021977 -12.2000 62.0000 -1 -12.1000 62.8000 99 9.90000 -12.2000 62.0000 TC 25 -12.1647 61.9925 1 -12.1000 62.8000 TC 60 7 265
1976312S09090 1977 134 SI MM BRIGITTA 1976-11-26 15:00:00 TS -12.1632 61.9798 main 996 981 P____P___PP_P_ SH021977 -12.2075 61.7000 -1 -12.1074 62.4000 99 -12.2075 61.7000 TC 25 -12.1860 61.6990 1 -12.1074 62.4000 TC 57 7 269
1976312S09090 1977 134 SI MM BRIGITTA 1976-11-26 18:00:00 TS -12.1600 61.6400 reunion main 977 964 O____O___OO_O_ jtwc_sh SH021977 -12.2000 61.4000 -1 -12.1000 62.0000 99 9.90000 -12.2000 61.4000 TC 25 -12.2000 61.4000 1 -12.1000 62.0000 TC 55 7 270
1976312S09090 1977 134 SI MM BRIGITTA 1976-11-26 21:00:00 TS -12.1654 61.3022 main 964 951 P____P___PP_P_ SH021977 -12.1999 61.1075 -1 -12.1000 61.5925 99 -12.1999 61.1075 TC 25 -12.2272 61.1108 1 -12.1000 61.5925 TC 55 7 269
1976312S09090 1977 134 SI MM BRIGITTA 1976-11-27 00:00:00 TS -12.1689 60.9621 reunion main 951 940 O____O___OP_O_ jtwc_sh SH021977 -12.2000 60.8000 -1 -12.1000 61.2000 99 9.90000 -12.2000 60.8000 TC 25 -12.2445 60.8103 1 -12.1000 61.2000 TC 55 7 269
1976312S09090 1977 134 SI MM BRIGITTA 1976-11-27 03:00:00 TS -12.1768 60.6310 main 936 926 P____P___PP_P_ SH021977 -12.2149 60.4726 -1 -12.1073 60.8650 99 -12.2149 60.4726 TC 25 -12.2396 60.4796 1 -12.1073 60.8650 TC 55 7 271
1976312S09090 1977 134 SI MM BRIGITTA 1976-11-27 06:00:00 TS -12.1600 60.2600 reunion main 926 923 O____O___OO_O_ jtwc_sh SH021977 -12.2000 60.1000 -1 -12.1000 60.5000 3 9.90000 -12.2000 60.1000 TC 25 -12.2000 60.1000 1 -12.1000 60.5000 TC 55 8 276
1976312S09090 1977 134 SI MM BRIGITTA 1976-11-27 09:00:00 TS -12.0958 59.8088 main 923 918 P____P___PP_P_ SH021977 -12.1224 59.6800 -1 -12.0576 60.0150 3 -12.1224 59.6800 TC 25 -12.1191 59.6542 1 -12.0576 60.0150 TC 55 9 280
1976312S09090 1977 134 SI MM BRIGITTA 1976-11-27 12:00:00 TS -12.0005 59.3120 reunion main 922 918 O____O___OP_O_ jtwc_sh SH021977 -12.0000 59.2000 -1 -12.0000 59.5000 99 9.90000 -12.0000 59.2000 TC 25 -12.0025 59.1598 1 -12.0000 59.5000 TC 55 10 281
1976312S09090 1977 134 SI MM BRIGITTA 1976-11-27 15:00:00 TS -11.9038 58.8162 main 925 917 P____P___PP_P_ SH021977 -11.8650 58.6650 -1 -11.9648 59.0576 99 -11.8650 58.6650 TC 25 -11.8597 58.6355 1 -11.9648 59.0576 TC 52 10 283
1976312S09090 1977 134 SI MM BRIGITTA 1976-11-27 18:00:00 TS -11.7800 58.3000 reunion main 917 867 O____O___OO_O_ jtwc_sh SH021977 -11.7000 58.1000 -1 -11.9000 58.6000 99 9.90000 -11.7000 58.1000 TC 25 -11.7000 58.1000 1 -11.9000 58.6000 TC 50 11 285
1976312S09090 1977 134 SI MM BRIGITTA 1976-11-27 21:00:00 TS -11.6220 57.7540 main 870 813 P____P___PP_P_ SH021977 -11.4999 57.5425 -1 -11.7875 58.0576 99 -11.4999 57.5425 TC 25 -11.5352 57.5700 1 -11.7875 58.0576 TC 50 11 288
1976312S09090 1977 134 SI MM BRIGITTA 1976-11-28 00:00:00 TS -11.4315 57.2070 reunion main 813 766 O____O___OP_O_ jtwc_sh SH021977 -11.3000 57.0000 -1 -11.6000 57.5000 99 9.90000 -11.3000 57.0000 TC 25 -11.3574 57.0349 1 -11.6000 57.5000 TC 50 11 292
1976312S09090 1977 134 SI MM BRIGITTA 1976-11-28 03:00:00 TS -11.2091 56.6925 main 766 721 P____P___PP_P_ SH021977 -11.1424 56.4851 -1 -11.2924 56.9924 99 -11.1424 56.4851 TC 25 -11.1759 56.5074 1 -11.2924 56.9924 TC 47 11 294
1976312S09090 1977 134 SI MM BRIGITTA 1976-11-28 06:00:00 TS -11.0000 56.2000 reunion main 721 683 O____O___OO_O_ jtwc_sh SH021977 -11.0000 56.0000 -1 -11.0000 56.5000 3 9.90000 -11.0000 56.0000 TC 25 -11.0000 56.0000 1 -11.0000 56.5000 TC 45 10 290
1976312S09090 1977 134 SI MM BRIGITTA 1976-11-28 09:00:00 TS -10.8548 55.7266 main 673 637 P____P___PP_P_ SH021977 -10.8499 55.5426 -1 -10.8699 56.0077 3 -10.8499 55.5426 TC 25 -10.8343 55.5327 1 -10.8699 56.0077 TC 45 10 286
1976312S09090 1977 134 SI MM BRIGITTA 1976-11-28 12:00:00 TS -10.7354 55.2570 reunion main 641 597 O____O___OP_O_ jtwc_sh SH021977 -10.7000 55.1000 -1 -10.8000 55.5000 99 9.90000 -10.7000 55.1000 TC 25 -10.6770 55.0852 1 -10.8000 55.5000 TC 45 10 285
1976312S09090 1977 134 SI MM BRIGITTA 1976-11-28 15:00:00 TS -10.6092 54.7781 main 597 555 P____P___PP_P_ SH021977 -10.5424 54.6575 -1 -10.7149 54.9651 99 -10.5424 54.6575 TC 25 -10.5312 54.6451 1 -10.7149 54.9651 TC 45 10 285
1976312S09090 1977 134 SI MM BRIGITTA 1976-11-28 18:00:00 TS -10.4800 54.2800 reunion main 555 521 O____O___OO_O_ jtwc_sh SH021977 -10.4000 54.2000 -1 -10.6000 54.4000 99 9.90000 -10.4000 54.2000 TC 25 -10.4000 54.2000 1 -10.6000 54.4000 TC 45 11 286
1976312S09090 1977 134 SI MM BRIGITTA 1976-11-28 21:00:00 TS -10.3112 53.7428 main 512 471 P____P___PP_P_ SH021977 -10.2925 53.7001 -1 -10.3549 53.8071 99 -10.2925 53.7001 TC 25 -10.2614 53.6997 1 -10.3549 53.8071 TC 42 11 285
1976312S09090 1977 134 SI MM BRIGITTA 1976-11-29 00:00:00 TS -10.1880 53.1995 reunion main 471 424 O____O___OP_O_ jtwc_sh SH021977 -10.2000 53.2000 -1 -10.2000 53.2000 99 9.90000 -10.2000 53.2000 TC 25 -10.1402 53.1974 1 -10.2000 53.2000 TC 40 11 277
1976312S09090 1977 134 SI MM BRIGITTA 1976-11-29 03:00:00 TS -10.1798 52.6544 main 424 378 P____P___PP_P_ SH021977 -10.0850 52.7275 -1 -10.3401 52.5479 99 -10.0850 52.7275 TC 25 -10.0489 52.7215 1 -10.3401 52.5479 TC 40 10 267
1976312S09090 1977 134 SI MM BRIGITTA 1976-11-29 06:00:00 TS -10.2400 52.1800 reunion main 378 346 O____O___OO_O_ jtwc_sh SH021977 -10.0000 52.3000 -1 -10.6000 52.0000 3 9.90000 -10.0000 52.3000 TC 25 -10.0000 52.3000 1 -10.6000 52.0000 TC 40 8 261
1976312S09090 1977 134 SI MM BRIGITTA 1976-11-29 09:00:00 TS -10.3052 51.8375 main 337 306 P____P___PP_P_ SH021977 -9.96997 51.9125 -1 -10.7923 51.7048 3 -9.96997 51.9125 TC 25 -10.0017 51.9530 1 -10.7923 51.7048 TC 37 7 248
1976312S09090 1977 134 SI MM BRIGITTA 1976-11-29 12:00:00 TS -10.4785 51.5649 reunion main 306 266 O____O___OP_O_ jtwc_sh SH021977 -10.0000 51.6000 -1 -11.0000 51.5000 99 9.90000 -10.0000 51.6000 TC 25 -10.0448 51.6678 1 -11.0000 51.5000 TC 35 7 231
1976312S09090 1977 134 SI MM BRIGITTA 1976-11-29 15:00:00 TS -10.7508 51.2862 main 259 213 P____P___PP_P_ SH021977 -10.0850 51.3750 -1 -11.2425 51.2075 99 -10.0850 51.3750 TC 25 -10.1155 51.4236 1 -11.2425 51.2075 TC 35 9 221
1976312S09090 1977 134 SI MM BRIGITTA 1976-11-29 18:00:00 TS -11.1455 50.9818 reunion main 213 142 O____O___OO_O_ jtwc_sh SH021977 -10.2000 51.2000 -1 -11.5000 50.9000 99 9.90000 -10.2000 51.2000 TC 25 -10.2000 51.2000 6 -11.5000 50.9000 TC 35 12 214
1976312S09090 1977 134 SI MM BRIGITTA 1976-11-29 21:00:00 TS -11.7350 50.5999 main 142 100 _____P______P_ SH021977 -1 -11.7350 50.5999 99 TC 6 -11.7350 50.5999 TC 32 11 218
1976312S09090 1977 134 SI MM BRIGITTA 1976-11-30 00:00:00 TS -12.0000 50.3000 reunion main 100 54 _____O______O_ -1 -12.0000 50.3000 99 9.90000 6 -12.0000 50.3000 TC 30 9 219
1976312S09090 1977 134 SI MM BRIGITTA 1976-11-30 03:00:00 TS -12.4249 50.0228 main 54 10 _____P______P_ -1 -12.4249 50.0228 99 6 -12.4249 50.0228 TC 30 9 220
1976312S09090 1977 134 SI MM BRIGITTA 1976-11-30 06:00:00 TS -12.7000 49.7000 reunion main 10 0 _____O______O_ -1 -12.7000 49.7000 2 9.90000 -12.7000 49.7000 TC 30 7 262
1976312S09090 1977 134 SI MM BRIGITTA 1976-11-30 09:00:00 TS -12.5251 49.2646 main 0 0 _____P______P_ -1 -12.5251 49.2646 2 -12.5251 49.2646 TC 27 10 300
1976312S09090 1977 134 SI MM BRIGITTA 1976-11-30 12:00:00 TS -12.2000 48.8000 reunion main 24 24 _____O______O_ -1 -12.2000 48.8000 6 9.90000 -12.2000 48.8000 TC 25 10 300
1976312S09090 1977 134 SI MM BRIGITTA 1976-11-30 15:00:00 TS -12.0349 48.3926 main 70 70 _____P______P_ -1 -12.0349 48.3926 6 -12.0349 48.3926 TC 25 8 291
1976312S09090 1977 134 SI MM BRIGITTA 1976-11-30 18:00:00 TS -11.9000 48.0000 reunion main 109 109 _____O______O_ -1 -11.9000 48.0000 6 9.90000 -11.9000 48.0000 TC 25 8 292
1976312S09090 1977 134 SI MM BRIGITTA 1976-11-30 21:00:00 TS -11.7199 47.6074 main 158 158 _____P______P_ -1 -11.7199 47.6074 6 -11.7199 47.6074 TC 25 8 291
1976312S09090 1977 134 SI MM BRIGITTA 1976-12-01 00:00:00 TS -11.6000 47.2000 reunion main 201 201 _____O______O_ -1 -11.6000 47.2000 6 9.90000 -11.6000 47.2000 TC 25 8 278
1976312S09090 1977 134 SI MM BRIGITTA 1976-12-01 03:00:00 TS -11.6102 46.7602 main 239 239 _____P______P_ -1 -11.6102 46.7602 6 -11.6102 46.7602 TC 25 9 264
1976312S09090 1977 134 SI MM BRIGITTA 1976-12-01 06:00:00 TS -11.7000 46.3000 reunion main 281 _____O______O_ -1 -11.7000 46.3000 6 9.90000 -11.7000 46.3000 TC 25 9 259

About IBTrACS Database

This database is a web-friendly format of International Best Track Archive for Climate Stewardship (IBTrACS), a global best track data archive curated by NOAA dating back to 1842.

Updated: 2021-11-26